Time;durP1;ratioP1;P1;durP2;ratioP2;P2;SDS_P1;SDS_P2;PMS_P1;PMS_P2;Temp;Humidity;BMP_temperature;BMP_pressure;BME280_temperature;BME280_humidity;BME280_pressure;Samples;Min_cycle;Max_cycle;Signal;HPM_P1;HPM_P2
2022/07/23 00:00:39;;;;;;;;;;;;;;;16.38;56.52;100806.69;5038893;28;1951;-58
2022/07/23 00:03:05;;;;;;;;;;;;;;;16.35;56.73;100810.78;5038342;28;1140;-57
2022/07/23 00:05:30;;;;;;;;;;;;;;;16.31;56.62;100812.41;5038969;28;1064;-58
2022/07/23 00:07:56;;;;;;;;;;;;;;;16.32;56.26;100813.25;5038859;28;1301;-58
2022/07/23 00:10:21;;;;;;;;;;;;;;;16.28;56.39;100812.97;5038597;28;963;-58
2022/07/23 00:12:46;;;;;;;;;;;;;;;16.56;56.87;100817.16;5044330;28;1006;-57
2022/07/23 00:15:12;;;;;;;;;;;;;;;17.47;57.00;100813.00;5043586;28;1080;-57
2022/07/23 00:17:37;;;;;;;;;;;;;;;16.88;58.00;100815.25;5038511;28;1009;-57
2022/07/23 00:20:03;;;;;;;;;;;;;;;16.69;57.70;100812.22;5042643;28;1037;-57
2022/07/23 00:22:29;;;;;;;;;;;;;;;16.60;57.59;100809.19;5020800;28;1906;-58
2022/07/23 00:24:54;;;;;;;;;;;;;;;16.57;57.37;100809.75;5038389;28;981;-57
2022/07/23 00:27:20;;;;;;;;;;;;;;;16.47;57.03;100804.25;5040734;28;1026;-57
2022/07/23 00:29:45;;;;;;;;;;;;;;;16.48;56.97;100816.84;5022747;28;1141;-57
2022/07/23 00:32:11;;;;;;;;;;;;;;;16.40;56.77;100810.81;5038259;28;1061;-57
2022/07/23 00:34:36;;;;;;;;;;;;;;;16.40;56.77;100810.81;5041465;28;1088;-57
2022/07/23 00:37:01;;;;;;;;;;;;;;;16.30;56.77;100810.78;5038368;28;1065;-57
2022/07/23 00:39:27;;;;;;;;;;;;;;;16.30;56.65;100810.78;5037698;28;1458;-57
2022/07/23 00:41:52;;;;;;;;;;;;;;;16.33;56.37;100812.16;5036922;28;1915;-59
2022/07/23 00:44:22;;;;;;;;;;;;;;;17.22;57.35;100815.53;5038062;28;1336;-60
2022/07/23 00:46:53;;;;;;;;;;;;;;;17.22;57.62;100814.69;5026583;28;1111;-59
2022/07/23 00:49:22;;;;;;;;;;;;;;;16.89;57.77;100814.19;5020470;28;1132;-58
2022/07/23 00:51:48;;;;;;;;;;;;;;;16.71;57.54;100816.34;5037461;28;851;-60
2022/07/23 00:54:14;;;;;;;;;;;;;;;16.68;57.36;100818.81;5019690;28;1315;-57
2022/07/23 00:56:40;;;;;;;;;;;;;;;16.57;57.04;100812.47;5016050;28;1203;-57
2022/07/23 00:59:06;;;;;;;;;;;;;;;16.52;57.19;100818.81;5020382;28;1096;-59
2022/07/23 01:01:31;;;;;;;;;;;;;;;16.46;57.01;100813.56;5003475;28;1901;-57
2022/07/23 01:03:57;;;;;;;;;;;;;;;16.43;56.88;100804.75;5037177;28;888;-58
2022/07/23 01:06:22;;;;;;;;;;;;;;;16.40;56.67;100805.31;5037053;28;1116;-60
2022/07/23 01:08:48;;;;;;;;;;;;;;;17.64;56.97;100798.94;5037623;28;1069;-60
2022/07/23 01:11:13;;;;;;;;;;;;;;;17.10;57.64;100804.81;5037337;28;1219;-58
2022/07/23 01:13:42;;;;;;;;;;;;;;;16.83;57.82;100799.59;5019715;28;2039;-58
2022/07/23 01:16:08;;;;;;;;;;;;;;;16.72;57.54;100796.03;5029204;28;1148;-58
2022/07/23 01:18:34;;;;;;;;;;;;;;;16.66;57.44;100802.63;5019802;28;1221;-58
2022/07/23 01:20:59;;;;;;;;;;;;;;;16.61;57.13;100799.84;5037296;28;1901;-58
2022/07/23 01:23:24;;;;;;;;;;;;;;;16.57;56.96;100796.00;5019201;28;967;-58
2022/07/23 01:25:54;;;;;;;;;;;;;;;16.53;56.94;100792.97;5019599;28;1330;-60
2022/07/23 01:28:21;;;;;;;;;;;;;;;16.47;56.85;100793.25;5019460;28;1139;-60
2022/07/23 01:30:48;;;;;;;;;;;;;;;16.45;56.75;100787.22;5019409;28;1323;-58
2022/07/23 01:33:13;;;;;;;;;;;;;;;16.41;56.52;100793.25;5037325;28;1033;-59
2022/07/23 01:35:39;;;;;;;;;;;;;;;17.48;57.25;100798.19;5019310;28;1208;-59
2022/07/23 01:38:06;;;;;;;;;;;;;;;17.03;57.91;100796.03;5019288;28;1113;-60
2022/07/23 01:40:32;;;;;;;;;;;;;;;16.77;57.79;100787.78;5017811;28;1922;-60
2022/07/23 01:42:58;;;;;;;;;;;;;;;16.66;57.63;100785.31;5017885;28;1285;-60
2022/07/23 01:45:23;;;;;;;;;;;;;;;16.59;57.20;100797.41;5013307;28;1313;-59
2022/07/23 01:47:51;;;;;;;;;;;;;;;16.52;56.88;100791.34;5008735;28;1146;-58
2022/07/23 01:50:16;;;;;;;;;;;;;;;16.50;56.95;100793.53;5036740;28;994;-58
2022/07/23 01:53:08;;;;;;;;;;;;;;;16.46;56.63;100786.13;5013829;28;1236;-58
2022/07/23 01:55:35;;;;;;;;;;;;;;;16.42;56.75;100783.94;5019173;28;1143;-59
2022/07/23 01:58:02;;;;;;;;;;;;;;;16.41;56.63;100787.75;5018966;28;1326;-59
2022/07/23 02:00:28;;;;;;;;;;;;;;;16.33;56.57;100782.81;5018687;28;1225;-59
2022/07/23 02:02:54;;;;;;;;;;;;;;;16.98;57.55;100786.97;5017636;28;1906;-59
2022/07/23 02:05:20;;;;;;;;;;;;;;;17.32;57.51;100789.13;5012676;28;1164;-59
2022/07/23 02:07:46;;;;;;;;;;;;;;;16.85;58.00;100786.41;5018627;28;1269;-58
2022/07/23 02:10:11;;;;;;;;;;;;;;;16.75;57.48;100779.00;5018929;28;1203;-58
2022/07/23 02:12:37;;;;;;;;;;;;;;;16.63;57.54;100786.66;5019013;28;1333;-58
2022/07/23 02:15:03;;;;;;;;;;;;;;;16.60;57.09;100784.47;5035942;28;1076;-58
2022/07/23 02:17:28;;;;;;;;;;;;;;;16.51;57.10;100786.09;5018841;28;1106;-59
2022/07/23 02:19:53;;;;;;;;;;;;;;;16.48;56.84;100783.91;5042801;28;1017;-59
2022/07/23 02:22:21;;;;;;;;;;;;;;;16.39;56.79;100787.19;5018372;28;1901;-59
2022/07/23 02:24:48;;;;;;;;;;;;;;;16.45;56.57;100788.03;5036150;28;1056;-59
2022/07/23 02:27:13;;;;;;;;;;;;;;;16.39;56.53;100791.88;5034492;28;982;-58
2022/07/23 02:29:39;;;;;;;;;;;;;;;16.33;56.50;100790.22;5015740;28;1306;-58
2022/07/23 02:32:04;;;;;;;;;;;;;;;16.28;56.55;100795.69;5039723;28;1033;-59
2022/07/23 02:34:30;;;;;;;;;;;;;;;17.39;57.12;100803.41;5036379;28;1223;-60
2022/07/23 02:36:55;;;;;;;;;;;;;;;17.08;57.80;100798.78;5018226;28;1098;-59
2022/07/23 02:39:21;;;;;;;;;;;;;;;16.77;57.85;100798.78;5017506;28;1214;-59
2022/07/23 02:41:47;;;;;;;;;;;;;;;16.66;57.52;100805.38;5017877;28;1959;-59
2022/07/23 02:44:13;;;;;;;;;;;;;;;16.60;57.03;100796.28;5037231;28;1191;-59
2022/07/23 02:46:41;;;;;;;;;;;;;;;16.54;57.14;100800.13;5022973;28;988;-59
2022/07/23 02:49:07;;;;;;;;;;;;;;;16.46;56.87;100802.59;5018297;28;990;-59
2022/07/23 02:51:32;;;;;;;;;;;;;;;16.47;56.51;100796.00;5017511;28;1117;-58
2022/07/23 02:54:02;;;;;;;;;;;;;;;16.41;56.39;100806.13;5018306;28;1169;-58
2022/07/23 02:56:28;;;;;;;;;;;;;;;16.32;56.63;100797.63;5018564;28;1182;-58
2022/07/23 02:58:56;;;;;;;;;;;;;;;16.31;56.47;100800.63;5018992;28;1188;-58
2022/07/23 03:01:21;;;;;;;;;;;;;;;16.27;56.48;100800.38;5039493;28;1910;-54
2022/07/23 03:03:47;;;;;;;;;;;;;;;16.94;57.22;100805.94;5018207;28;1103;-56
2022/07/23 03:06:13;;;;;;;;;;;;;;;17.15;57.51;100803.97;5035278;28;1133;-58
2022/07/23 03:08:39;;;;;;;;;;;;;;;16.75;57.92;100817.44;5018524;28;1179;-57
2022/07/23 03:11:10;;;;;;;;;;;;;;;16.65;57.52;100817.44;5032485;28;1226;-56
2022/07/23 03:13:40;;;;;;;;;;;;;;;16.58;57.32;100830.59;5024796;28;1300;-53
2022/07/23 03:16:05;;;;;;;;;;;;;;;16.49;57.25;100824.00;5035596;28;1148;-55
2022/07/23 03:18:31;;;;;;;;;;;;;;;16.45;56.87;100822.88;5017912;28;2237;-56
2022/07/23 03:20:56;;;;;;;;;;;;;;;16.39;56.63;100822.06;5041960;28;1905;-59
2022/07/23 03:23:22;;;;;;;;;;;;;;;16.39;56.75;100825.59;5018159;28;1273;-61
2022/07/23 03:25:50;;;;;;;;;;;;;;;16.88;57.50;100832.56;5035530;28;1069;-57
2022/07/23 03:28:16;;;;;;;;;;;;;;;17.16;57.73;100837.78;5017855;28;1095;-57
2022/07/23 03:30:46;;;;;;;;;;;;;;;16.77;57.90;100839.13;5023897;28;1392;-58
2022/07/23 03:33:16;;;;;;;;;;;;;;;16.63;57.69;100835.28;5040290;28;1045;-57
2022/07/23 03:35:42;;;;;;;;;;;;;;;16.57;57.20;100826.22;5019945;28;1262;-58
2022/07/23 03:38:18;;;;;;;;;;;;;;;16.52;57.22;100829.78;5017079;28;1396;-56
2022/07/23 03:40:43;;;;;;;;;;;;;;;16.46;57.04;100824.53;5021291;28;1957;-57
2022/07/23 03:43:09;;;;;;;;;;;;;;;16.45;56.63;100822.88;5026544;28;1045;-59
2022/07/23 03:45:34;;;;;;;;;;;;;;;16.34;56.85;100833.84;5038794;28;1191;-57
2022/07/23 03:48:00;;;;;;;;;;;;;;;16.34;56.60;100830.25;5021232;28;1186;-57
2022/07/23 03:50:25;;;;;;;;;;;;;;;16.48;56.98;100831.41;5038889;28;958;-60
2022/07/23 03:52:51;;;;;;;;;;;;;;;16.37;56.81;100825.06;5020795;28;1290;-63
2022/07/23 03:55:16;;;;;;;;;;;;;;;16.37;56.70;100827.81;5020491;28;1184;-60
2022/07/23 03:57:42;;;;;;;;;;;;;;;16.63;57.29;100836.09;5038257;28;1065;-60
2022/07/23 04:00:09;;;;;;;;;;;;;;;17.54;57.35;100827.28;5037738;28;1224;-58
2022/07/23 04:02:38;;;;;;;;;;;;;;;16.90;58.29;100835.03;5020453;28;1940;-58
2022/07/23 04:05:04;;;;;;;;;;;;;;;16.80;57.90;100840.50;5020338;28;1155;-59
2022/07/23 04:07:30;;;;;;;;;;;;;;;16.64;57.63;100836.94;5023911;28;1269;-59
2022/07/23 04:09:56;;;;;;;;;;;;;;;16.62;57.22;100834.47;5023957;28;1428;-60
2022/07/23 04:12:21;;;;;;;;;;;;;;;16.53;57.05;100838.81;5044148;28;982;-59
2022/07/23 04:14:46;;;;;;;;;;;;;;;16.50;57.09;100831.13;5025373;28;1108;-59
2022/07/23 04:17:12;;;;;;;;;;;;;;;16.48;57.08;100833.31;5020733;28;1124;-61
2022/07/23 04:19:41;;;;;;;;;;;;;;;16.44;56.59;100833.06;5039003;28;1155;-60
2022/07/23 04:22:08;;;;;;;;;;;;;;;16.42;56.49;100836.06;5020534;28;1906;-58
2022/07/23 04:24:35;;;;;;;;;;;;;;;16.37;56.79;100838.78;5020982;28;1213;-60
2022/07/23 04:27:00;;;;;;;;;;;;;;;16.33;56.63;100831.38;5025867;28;1242;-60
2022/07/23 04:29:26;;;;;;;;;;;;;;;16.85;57.22;100846.00;5042388;28;1203;-60
2022/07/23 04:31:51;;;;;;;;;;;;;;;17.27;57.60;100839.44;5038642;28;1041;-60
2022/07/23 04:34:17;;;;;;;;;;;;;;;16.83;57.85;100845.44;5023910;28;1247;-66
2022/07/23 04:36:43;;;;;;;;;;;;;;;16.70;57.75;100841.31;5020367;28;1116;-62
2022/07/23 04:39:08;;;;;;;;;;;;;;;16.62;57.49;100845.44;5020434;28;1214;-61
2022/07/23 04:41:34;;;;;;;;;;;;;;;16.58;57.29;100842.41;5018070;28;1902;-60
2022/07/23 04:44:00;;;;;;;;;;;;;;;16.55;56.93;100844.84;5019998;28;1352;-60
2022/07/23 04:46:26;;;;;;;;;;;;;;;16.48;56.83;100838.81;5020307;28;1343;-61
2022/07/23 04:48:51;;;;;;;;;;;;;;;16.50;56.96;100842.13;5020289;28;1242;-60
2022/07/23 04:51:17;;;;;;;;;;;;;;;16.43;56.75;100845.13;5025897;28;1321;-59
2022/07/23 04:53:42;;;;;;;;;;;;;;;16.40;56.97;100841.00;5016557;28;1183;-61
2022/07/23 04:56:09;;;;;;;;;;;;;;;16.40;56.52;100846.47;5016990;28;1210;-61
2022/07/23 04:58:34;;;;;;;;;;;;;;;16.33;56.97;100843.16;5019543;28;1536;-59
2022/07/23 05:01:00;;;;;;;;;;;;;;;16.29;56.71;100846.72;5018191;28;1979;-58
2022/07/23 05:03:27;;;;;;;;;;;;;;;16.38;56.57;100845.09;5016499;28;1246;-60
2022/07/23 05:05:52;;;;;;;;;;;;;;;16.35;56.71;100846.47;5016302;28;1138;-58
2022/07/23 05:08:18;;;;;;;;;;;;;;;16.29;56.56;100853.03;5016547;28;1320;-59
2022/07/23 05:10:50;;;;;;;;;;;;;;;16.56;57.09;100857.50;5016897;28;1064;-59
2022/07/23 05:13:16;;;;;;;;;;;;;;;17.51;56.91;100847.09;5016062;28;1139;-62
2022/07/23 05:15:42;;;;;;;;;;;;;;;16.92;57.74;100857.59;5015796;28;1259;-61
2022/07/23 05:18:07;;;;;;;;;;;;;;;16.73;57.76;100852.59;5017531;28;889;-63
2022/07/23 05:20:33;;;;;;;;;;;;;;;16.69;57.59;100861.63;5020326;28;1187;-65
2022/07/23 05:22:59;;;;;;;;;;;;;;;16.60;57.63;100851.19;5016651;28;1983;-58
2022/07/23 05:25:24;;;;;;;;;;;;;;;16.57;57.32;100850.91;5016400;28;1115;-62
2022/07/23 05:27:50;;;;;;;;;;;;;;;16.55;57.04;100851.19;5020966;28;1115;-61
2022/07/23 05:30:15;;;;;;;;;;;;;;;16.57;56.98;100848.97;5016174;28;1305;-58
2022/07/23 05:32:43;;;;;;;;;;;;;;;16.45;57.23;100845.66;5015983;28;1361;-60
2022/07/23 05:35:15;;;;;;;;;;;;;;;16.41;57.23;100850.03;5019391;28;1184;-60
2022/07/23 05:37:47;;;;;;;;;;;;;;;16.46;56.94;100846.50;5015593;28;1232;-58
2022/07/23 05:40:12;;;;;;;;;;;;;;;16.41;56.96;100845.41;5015881;28;1178;-58
2022/07/23 05:42:38;;;;;;;;;;;;;;;16.41;56.92;100850.88;5013732;28;1906;-59
2022/07/23 05:45:04;;;;;;;;;;;;;;;16.39;56.58;100836.59;5015783;28;1142;-59
2022/07/23 05:47:41;;;;;;;;;;;;;;;16.37;56.74;100844.28;5020731;28;2696;-58
2022/07/23 05:50:07;;;;;;;;;;;;;;;16.36;56.68;100842.63;5021262;28;2320;-59
2022/07/23 05:52:39;;;;;;;;;;;;;;;18.21;53.01;100846.34;5018490;28;1964;-60
2022/07/23 05:55:25;;;;;;;;;;;;;;;17.15;54.26;100844.38;5009260;28;1900;-62
2022/07/23 05:57:51;;;;;;;;;;;;;;;18.53;52.67;100831.28;5036339;28;2058;-57
2022/07/23 06:00:16;;;;;;;;;;;;;;;15.67;59.75;100844.53;5022546;28;2005;-59
2022/07/23 06:02:44;;;;;;;;;;;;;;;17.74;55.49;100838.25;5020741;28;1968;-58
2022/07/23 06:05:11;;;;;;;;;;;;;;;18.37;53.11;100833.28;5028264;28;1222;-58
2022/07/23 06:07:38;;;;;;;;;;;;;;;15.60;60.38;100849.41;5020855;28;1192;-60
2022/07/23 06:10:03;;;;;;;;;;;;;;;18.62;53.72;100829.56;5020309;28;1290;-60
2022/07/23 06:12:29;;;;;;;;;;;;;;;16.26;59.56;100845.34;5020124;28;1049;-59
2022/07/23 06:14:54;;;;;;;;;;;;;;;16.40;57.23;100838.25;5036383;28;1005;-58
2022/07/23 06:17:20;;;;;;;;;;;;;;;17.07;54.73;100841.09;5015230;28;1148;-58
2022/07/23 06:19:46;;;;;;;;;;;;;;;17.88;54.85;100826.63;5018359;28;1112;-58
2022/07/23 06:22:11;;;;;;;;;;;;;;;17.38;54.24;100838.31;5035878;28;1906;-59
2022/07/23 06:24:37;;;;;;;;;;;;;;;17.30;52.71;100832.56;5024237;28;1107;-58
2022/07/23 06:27:03;;;;;;;;;;;;;;;17.17;52.40;100831.22;5018340;28;1106;-58
2022/07/23 06:29:29;;;;;;;;;;;;;;;17.22;51.34;100836.69;5013882;28;1103;-59
2022/07/23 06:31:55;;;;;;;;;;;;;;;18.25;53.17;100837.22;5038171;28;2732;-58
2022/07/23 06:34:20;;;;;;;;;;;;;;;15.03;63.20;100838.06;5018095;28;1235;-57
2022/07/23 06:36:45;;;;;;;;;;;;;;;18.58;55.34;100834.00;5036154;28;1049;-58
2022/07/23 06:39:11;;;;;;;;;;;;;;;16.95;58.94;100836.97;5017834;28;1149;-57
2022/07/23 06:41:37;;;;;;;;;;;;;;;16.54;60.97;100840.47;5017711;28;1891;-58
2022/07/23 06:44:03;;;;;;;;;;;;;;;19.13;54.96;100842.97;5018084;28;1011;-58
2022/07/23 06:46:30;;;;;;;;;;;;;;;15.24;63.32;100835.47;5018593;28;934;-56
2022/07/23 06:48:56;;;;;;;;;;;;;;;16.79;56.56;100838.84;5017862;28;1098;-55
2022/07/23 06:51:21;;;;;;;;;;;;;;;17.09;53.87;100835.31;5035839;28;1017;-55
2022/07/23 06:53:47;;;;;;;;;;;;;;;17.15;52.70;100838.88;5020677;28;1291;-58
2022/07/23 06:56:13;;;;;;;;;;;;;;;17.16;52.33;100843.28;5019320;28;1089;-59
2022/07/23 06:58:39;;;;;;;;;;;;;;;17.17;51.62;100843.00;5018715;28;1354;-57
2022/07/23 07:01:04;;;;;;;;;;;;;;;17.13;51.13;100843.84;5018030;28;2625;-58
2022/07/23 07:03:30;;;;;;;;;;;;;;;17.20;50.77;100838.91;5018231;28;1360;-58
2022/07/23 07:05:57;;;;;;;;;;;;;;;17.81;52.74;100842.59;5039867;28;1006;-58
2022/07/23 07:08:22;;;;;;;;;;;;;;;15.82;60.27;100840.22;5039771;28;962;-56
2022/07/23 07:10:48;;;;;;;;;;;;;;;17.47;58.01;100837.75;5039377;28;954;-56
2022/07/23 07:13:13;;;;;;;;;;;;;;;19.25;55.30;100842.59;5044846;28;1057;-56
2022/07/23 07:15:39;;;;;;;;;;;;;;;15.05;64.06;100835.88;5039525;28;994;-55
2022/07/23 07:18:04;;;;;;;;;;;;;;;16.88;56.78;100837.22;5042747;28;1064;-53
2022/07/23 07:20:30;;;;;;;;;;;;;;;17.21;53.86;100832.31;5043007;28;986;-57
2022/07/23 07:22:55;;;;;;;;;;;;;;;17.27;52.77;100839.44;5044708;28;1894;-55
2022/07/23 07:25:20;;;;;;;;;;;;;;;17.23;52.03;100830.09;5043707;28;982;-56
2022/07/23 07:27:46;;;;;;;;;;;;;;;17.23;51.52;100830.09;5039427;28;1195;-56
2022/07/23 07:30:11;;;;;;;;;;;;;;;17.31;51.11;100826.78;5021192;28;1014;-56
2022/07/23 07:32:37;;;;;;;;;;;;;;;17.27;51.14;100833.94;5038637;28;2886;-56
2022/07/23 07:35:03;;;;;;;;;;;;;;;17.26;50.97;100829.53;5039367;28;1077;-56
2022/07/23 07:37:29;;;;;;;;;;;;;;;17.30;50.61;100833.38;5042637;28;1156;-52
2022/07/23 07:39:54;;;;;;;;;;;;;;;17.24;50.42;100837.25;5041626;28;1167;-53
2022/07/23 07:42:20;;;;;;;;;;;;;;;17.26;50.13;100829.53;5039235;28;1914;-56
2022/07/23 07:44:45;;;;;;;;;;;;;;;18.04;53.24;100832.94;5038879;28;1211;-56
2022/07/23 07:47:11;;;;;;;;;;;;;;;15.60;60.64;100838.44;5039211;28;1021;-53
2022/07/23 07:49:36;;;;;;;;;;;;;;;18.61;55.24;100833.44;5038979;28;1148;-57
2022/07/23 07:52:02;;;;;;;;;;;;;;;16.53;61.47;100830.59;5044415;28;1045;-56
2022/07/23 07:54:27;;;;;;;;;;;;;;;16.13;60.40;100834.88;5020365;28;1110;-54
2022/07/23 07:56:53;;;;;;;;;;;;;;;17.06;54.59;100822.97;5038811;28;1147;-54
2022/07/23 07:59:18;;;;;;;;;;;;;;;17.28;52.84;100824.59;5038857;28;1022;-54
2022/07/23 08:01:44;;;;;;;;;;;;;;;17.34;52.09;100834.47;5040072;28;2454;-49
2022/07/23 08:04:09;;;;;;;;;;;;;;;17.34;51.39;100823.47;5040249;28;985;-56
2022/07/23 08:06:35;;;;;;;;;;;;;;;17.27;51.11;100826.50;5038526;28;1180;-53
2022/07/23 08:09:00;;;;;;;;;;;;;;;17.28;50.94;100821.84;5039934;28;1148;-57
2022/07/23 08:11:25;;;;;;;;;;;;;;;17.75;52.02;100831.63;5038100;28;1009;-56
2022/07/23 08:13:51;;;;;;;;;;;;;;;15.64;59.82;100836.00;5038071;28;1029;-56
2022/07/23 08:16:16;;;;;;;;;;;;;;;17.57;56.85;100837.72;5044063;28;993;-53
2022/07/23 08:18:42;;;;;;;;;;;;;;;19.16;54.80;100833.28;5020792;28;994;-55
2022/07/23 08:21:07;;;;;;;;;;;;;;;15.04;64.62;100836.16;5042046;28;1980;-55
2022/07/23 08:23:34;;;;;;;;;;;;;;;16.95;56.15;100821.31;5038005;28;1021;-52
2022/07/23 08:26:00;;;;;;;;;;;;;;;17.28;53.37;100830.91;5037968;28;1101;-53
2022/07/23 08:28:26;;;;;;;;;;;;;;;17.40;52.17;100822.38;5038263;28;1079;-52
2022/07/23 08:30:51;;;;;;;;;;;;;;;17.30;51.66;100821.56;5019487;28;2821;-53
2022/07/23 08:33:17;;;;;;;;;;;;;;;17.31;51.27;100823.22;5038351;28;1157;-56
2022/07/23 08:35:45;;;;;;;;;;;;;;;17.33;51.12;100827.31;5038483;28;1132;-56
2022/07/23 08:38:11;;;;;;;;;;;;;;;17.39;50.50;100814.38;5038118;28;1076;-56
2022/07/23 08:40:37;;;;;;;;;;;;;;;17.32;50.33;100820.19;5038161;28;1022;-55
2022/07/23 08:43:04;;;;;;;;;;;;;;;17.36;50.18;100821.28;5037102;28;1906;-52
2022/07/23 08:45:29;;;;;;;;;;;;;;;17.31;50.13;100829.53;5038033;28;1029;-54
2022/07/23 08:47:55;;;;;;;;;;;;;;;17.38;49.83;100826.50;5037286;28;1140;-52
2022/07/23 08:50:21;;;;;;;;;;;;;;;17.40;49.65;100836.13;5038048;28;1009;-57
2022/07/23 08:52:48;;;;;;;;;;;;;;;17.31;49.52;100826.78;5037443;28;1215;-52
2022/07/23 08:55:13;;;;;;;;;;;;;;;17.40;49.49;100838.03;5036596;28;910;-55
2022/07/23 08:57:39;;;;;;;;;;;;;;;17.40;49.29;100827.88;5019674;28;1168;-55
2022/07/23 09:00:06;;;;;;;;;;;;;;;17.44;49.28;100828.94;5043240;28;1116;-58
2022/07/23 09:02:34;;;;;;;;;;;;;;;17.39;49.06;100826.22;5037534;28;2514;-55
2022/07/23 09:04:59;;;;;;;;;;;;;;;17.37;49.16;100830.34;5019688;28;1026;-51
2022/07/23 09:07:24;;;;;;;;;;;;;;;17.37;49.07;100833.91;5041762;28;883;-54
2022/07/23 09:09:59;;;;;;;;;;;;;;;17.36;49.04;100837.78;5039394;28;1006;-52
2022/07/23 09:12:25;;;;;;;;;;;;;;;17.41;48.89;100840.50;5013380;28;1117;-52
2022/07/23 09:14:51;;;;;;;;;;;;;;;17.37;49.02;100828.41;5019489;28;1197;-52
2022/07/23 09:17:17;;;;;;;;;;;;;;;17.43;48.79;100837.47;5037141;28;1005;-50
2022/07/23 09:19:43;;;;;;;;;;;;;;;17.35;48.91;100841.63;5039335;28;887;-52
2022/07/23 09:22:24;;;;;;;;;;;;;;;17.41;48.67;100834.19;5037137;28;1981;-50
2022/07/23 09:25:09;;;;;;;;;;;;;;;17.51;48.48;100845.16;5031215;28;1036;-52
2022/07/23 09:27:47;;;;;;;;;;;;;;;17.99;49.20;100838.44;5036659;28;1156;-53
2022/07/23 09:30:12;;;;;;;;;;;;;;;14.97;59.29;100839.09;5036541;28;1009;-55
2022/07/23 09:32:41;;;;;;;;;;;;;;;18.34;53.47;100842.97;5034558;28;1097;-52
2022/07/23 09:35:06;;;;;;;;;;;;;;;17.76;56.53;100835.22;5043171;28;997;-54
2022/07/23 09:37:32;;;;;;;;;;;;;;;15.29;62.35;100843.75;5036883;28;1069;-49
2022/07/23 09:40:12;;;;;;;;;;;;;;;18.75;55.35;100833.63;5036991;28;1017;-51
2022/07/23 09:42:38;;;;;;;;;;;;;;;15.55;63.17;100838.41;5034143;28;1905;-48
2022/07/23 09:45:04;;;;;;;;;;;;;;;16.63;57.70;100838.03;5038745;28;1069;-54
2022/07/23 09:47:30;;;;;;;;;;;;;;;17.24;53.88;100829.00;5036015;28;1151;-55
2022/07/23 09:50:01;;;;;;;;;;;;;;;17.35;52.30;100836.13;5037083;28;1061;-54
2022/07/23 09:52:31;;;;;;;;;;;;;;;17.43;51.59;100832.81;5036604;28;1061;-53
2022/07/23 09:54:58;;;;;;;;;;;;;;;17.36;51.22;100842.44;5036356;28;1144;-55
2022/07/23 09:57:23;;;;;;;;;;;;;;;17.48;50.41;100828.41;5036475;28;966;-50
2022/07/23 09:59:50;;;;;;;;;;;;;;;17.43;50.42;100827.31;5018801;28;1034;-53
2022/07/23 10:02:15;;;;;;;;;;;;;;;17.48;50.07;100831.16;5040621;28;2556;-52
2022/07/23 10:05:00;;;;;;;;;;;;;;;17.52;49.42;100830.31;5025213;28;1113;-53
2022/07/23 10:07:45;;;;;;;;;;;;;;;17.50;49.57;100826.19;5021433;28;1049;-49
2022/07/23 10:10:29;;;;;;;;;;;;;;;17.41;49.41;100829.50;5035184;28;955;-54
2022/07/23 10:16:11;;;;;;;;;;;;;;;17.51;48.94;100825.91;5004739;28;1100;-50
2022/07/23 10:18:36;;;;;;;;;;;;;;;17.52;48.95;100824.00;5036571;28;1145;-52
2022/07/23 10:21:03;;;;;;;;;;;;;;;17.50;48.70;100826.19;5037897;28;1976;-53
2022/07/23 10:23:40;;;;;;;;;;;;;;;15.95;57.66;100842.50;5018833;28;1124;-52
2022/07/23 10:26:09;;;;;;;;;;;;;;;17.61;53.27;100831.41;5035684;28;1053;-50
2022/07/23 10:28:37;;;;;;;;;;;;;;;17.52;52.15;100818.50;4998960;28;1081;-52
2022/07/23 10:31:03;;;;;;;;;;;;;;;17.52;51.12;100824.00;5018742;28;2709;-50
2022/07/23 10:33:31;;;;;;;;;;;;;;;16.75;52.08;100819.38;5036189;28;1088;-53
2022/07/23 10:36:23;;;;;;;;;;;;;;;16.28;56.92;100817.63;5036243;28;986;-52
2022/07/23 10:39:05;;;;;;;;;;;;;;;17.66;53.68;100816.81;5027506;28;1224;-53
2022/07/23 10:41:33;;;;;;;;;;;;;;;14.54;61.02;100808.03;5034106;28;1906;-52
2022/07/23 10:44:05;;;;;;;;;;;;;;;18.12;54.98;100816.66;5035514;28;1061;-55
2022/07/23 10:49:21;;;;;;;;;;;;;;;17.63;57.31;100803.63;5020811;28;1223;-51
2022/07/23 10:52:05;;;;;;;;;;;;;;;17.93;55.68;100807.38;5024663;28;1041;-52
2022/07/23 10:54:30;;;;;;;;;;;;;;;15.94;61.22;100813.41;5035630;28;1100;-52
2022/07/23 10:56:56;;;;;;;;;;;;;;;18.32;56.27;100814.88;5035760;28;974;-53
2022/07/23 10:59:21;;;;;;;;;;;;;;;15.37;62.01;100815.00;5035679;28;1033;-52
2022/07/23 11:01:47;;;;;;;;;;;;;;;17.31;58.94;100818.53;5035698;28;2550;-48
2022/07/23 11:04:13;;;;;;;;;;;;;;;17.89;56.38;100817.28;5035895;28;1088;-53
2022/07/23 11:06:50;;;;;;;;;;;;;;;15.06;62.62;100818.34;5036036;28;1295;-52
2022/07/23 11:09:26;;;;;;;;;;;;;;;18.06;57.01;100812.28;5032750;28;1049;-52
2022/07/23 11:12:10;;;;;;;;;;;;;;;15.15;62.50;100821.44;5035434;28;1220;-52
2022/07/23 11:14:54;;;;;;;;;;;;;;;17.75;58.87;100812.38;5029288;28;1037;-52
2022/07/23 11:17:19;;;;;;;;;;;;;;;16.49;59.74;100821.25;5031482;28;1037;-50
2022/07/23 11:20:03;;;;;;;;;;;;;;;16.51;62.07;100817.16;5036615;28;1073;-52
2022/07/23 11:22:35;;;;;;;;;;;;;;;18.06;57.55;100817.78;5035397;28;1905;-53
2022/07/23 11:25:00;;;;;;;;;;;;;;;14.82;64.21;100814.34;5035458;28;1036;-50
2022/07/23 11:27:42;;;;;;;;;;;;;;;18.25;58.60;100803.38;5035845;28;989;-52
2022/07/23 11:30:08;;;;;;;;;;;;;;;15.95;61.83;100814.22;5035347;28;1084;-54
2022/07/23 11:32:35;;;;;;;;;;;;;;;16.75;60.82;100811.94;5038534;28;2568;-55
2022/07/23 11:35:00;;;;;;;;;;;;;;;17.84;57.74;100814.53;5039814;28;1018;-54
2022/07/23 11:37:36;;;;;;;;;;;;;;;14.67;64.58;100813.09;5034901;28;1106;-54
2022/07/23 11:40:03;;;;;;;;;;;;;;;18.22;58.48;100815.78;5028989;28;1072;-54
2022/07/23 11:42:29;;;;;;;;;;;;;;;16.00;61.63;100814.25;5036338;28;1973;-53
2022/07/23 11:44:54;;;;;;;;;;;;;;;16.41;60.88;100817.09;5034863;28;934;-51
2022/07/23 11:47:24;;;;;;;;;;;;;;;17.69;58.16;100801.69;5035445;28;1101;-53
2022/07/23 11:49:53;;;;;;;;;;;;;;;14.59;64.07;100810.81;5035936;28;981;-52
2022/07/23 11:52:18;;;;;;;;;;;;;;;18.04;59.06;100817.22;5039094;28;998;-52
2022/07/23 11:54:50;;;;;;;;;;;;;;;16.28;60.57;100817.63;5038798;28;1076;-53
2022/07/23 11:57:16;;;;;;;;;;;;;;;16.56;61.77;100813.56;5036337;28;872;-53
2022/07/23 11:59:42;;;;;;;;;;;;;;;17.90;58.17;100813.41;5039072;28;1085;-54
2022/07/23 12:02:07;;;;;;;;;;;;;;;14.74;64.22;100817.53;5038398;28;2552;-52
2022/07/23 12:04:45;;;;;;;;;;;;;;;18.00;59.74;100818.91;5038533;28;1061;-51
2022/07/23 12:07:29;;;;;;;;;;;;;;;16.33;61.29;100817.66;5033605;28;859;-56
2022/07/23 12:09:55;;;;;;;;;;;;;;;16.95;61.72;100826.00;5038682;28;1088;-55
2022/07/23 12:12:20;;;;;;;;;;;;;;;17.90;58.18;100814.25;5039134;28;1063;-56
2022/07/23 12:14:49;;;;;;;;;;;;;;;14.69;64.57;100818.34;5038154;28;1053;-53
2022/07/23 12:17:15;;;;;;;;;;;;;;;17.91;59.90;100815.09;5038533;28;1006;-53
2022/07/23 12:19:40;;;;;;;;;;;;;;;16.17;60.84;100816.78;5038371;28;990;-54
2022/07/23 12:22:06;;;;;;;;;;;;;;;16.62;62.33;100818.00;5038278;28;1906;-55
2022/07/23 12:24:33;;;;;;;;;;;;;;;17.91;58.72;100813.16;5038797;28;998;-55
2022/07/23 12:27:08;;;;;;;;;;;;;;;14.85;64.19;100819.28;5020392;28;1264;-53
2022/07/23 12:29:34;;;;;;;;;;;;;;;17.88;60.07;100815.63;5034359;28;1037;-56
2022/07/23 12:32:00;;;;;;;;;;;;;;;16.45;60.80;100817.41;5037920;28;2656;-55
2022/07/23 12:34:26;;;;;;;;;;;;;;;16.50;63.08;100825.66;5038437;28;1274;-55
2022/07/23 12:36:51;;;;;;;;;;;;;;;18.05;58.63;100816.13;5020063;28;961;-55
2022/07/23 12:39:30;;;;;;;;;;;;;;;14.99;64.01;100816.94;5038244;28;1231;-54
2022/07/23 12:41:56;;;;;;;;;;;;;;;16.62;56.57;100825.38;5038036;28;1974;-56
2022/07/23 12:44:21;;;;;;;;;;;;;;;17.02;53.86;100813.63;5037784;28;1203;-56
2022/07/23 12:46:51;;;;;;;;;;;;;;;17.08;52.81;100815.28;5038054;28;1041;-53
2022/07/23 12:49:26;;;;;;;;;;;;;;;17.09;51.89;100794.13;5020324;28;1081;-55
2022/07/23 12:51:52;;;;;;;;;;;;;;;17.15;51.28;100803.16;5037913;28;1021;-56
2022/07/23 12:54:17;;;;;;;;;;;;;;;17.15;50.92;100795.75;5037520;28;1132;-54